This is the latest recevied weather packets stored in our database for station/object IZ1VWE-3. If no packets are shown the sender has not sent any weather packets the latest 10 day(s).
| Time | Temp. | Humidity | Pressure | Rain* | Wind** | Luminosity | Snow |
|---|---|---|---|---|---|---|---|
| 1787455102 | 18.89° C | 68% | 1275.2 hPa | - | - | - | - |
| 1787453903 | 18.89° C | 67% | 1275.2 hPa | - | - | - | - |
| 1787452702 | 18.89° C | 69% | 1275.2 hPa | - | - | - | - |
| 1787451501 | 19.44° C | 68% | 1275.2 hPa | - | - | - | - |
| 1787450301 | 18.89° C | 70% | 1275.2 hPa | - | - | - | - |
| 1787449101 | 19.44° C | 69% | 1275.2 hPa | - | - | - | - |
| 1787447900 | 20° C | 65% | 1275.2 hPa | - | - | - | - |
| 1787446700 | 20° C | 66% | 1275.2 hPa | - | - | - | - |
| 1787445500 | 20° C | 69% | 1275.2 hPa | - | - | - | - |
| 1787444300 | 20.56° C | 69% | 1275.2 hPa | - | - | - | - |
| 1787443099 | 20.56° C | 69% | 1275.2 hPa | - | - | - | - |
| 1787441899 | 20.56° C | 70% | 1275.2 hPa | - | - | - | - |
| 1787440698 | 20.56° C | 70% | 1275.2 hPa | - | - | - | - |
| 1787439498 | 20.56° C | 69% | 1275.2 hPa | - | - | - | - |
| 1787438298 | 20.56° C | 69% | 1275.2 hPa | - | - | - | - |
| 1787437098 | 21.11° C | 68% | 1275.2 hPa | - | - | - | - |
| 1787435897 | 21.11° C | 68% | 1275.2 hPa | - | - | - | - |
| 1787434697 | 21.67° C | 67% | 1275.2 hPa | - | - | - | - |
| 1787433497 | 21.67° C | 67% | 1275.2 hPa | - | - | - | - |
| 1787432296 | 22.22° C | 66% | 1275.1 hPa | - | - | - | - |
| 1787431096 | 22.22° C | 65% | 1275.1 hPa | - | - | - | - |
| 1787429896 | 22.22° C | 65% | 1275.1 hPa | - | - | - | - |
| 1787428695 | 22.78° C | 63% | 1275.1 hPa | - | - | - | - |
| 1787427495 | 23.33° C | 63% | 1275.1 hPa | - | - | - | - |
| 1787426295 | 23.89° C | 60% | 1275.1 hPa | - | - | - | - |
* Rain since midnight (hover to see other rain measurements)
** Current wind speed in m/s (hover to see current wind gust speed)